Aviation Digital Data Service (ADDS)

Output produced by METARs form (0329 UTC 30 May 2017)
found at http://www.aviationweather.gov/adds/metars/
 
FIMR 300300Z 13011KT 9999 BKN017 24/21 Q1020
TAF FIMR 292335Z 3000/3018 10010G20KT 9999 FEW020 
     PROB30 
     TEMPO 3015/3018 8000 -SHRA FEW010 BKN015 BKN050
       
FIMP 300300Z 17010KT 1000NW 3000N -SHRA FEW006 SCT014 BKN045 23 /22 Q1020
TAF FIMP 292330Z 3000/3106 08005KT 9999 BKN014 BKN050 
     BECMG 3004/3006 11010KT 
     PROB30 
     TEMPO 3015/3102 8000 -SHRA FEW010 BKN014 BKN045